Time;durP1;ratioP1;P1;durP2;ratioP2;P2;SDS_P1;SDS_P2;PMS_P1;PMS_P2;Temp;Humidity;BMP_temperature;BMP_pressure;BME280_temperature;BME280_humidity;BME280_pressure;Samples;Min_cycle;Max_cycle;Signal;HPM_P1;HPM_P2
2023/09/11 00:02:07;;;;;;;6.63;5.45;;;;;;;29.34;48.10;101465.19;4981758;28;20121;-39
2023/09/11 00:04:34;;;;;;;7.97;6.07;;;;;;;29.33;48.31;101466.22;4982930;28;20132;-39
2023/09/11 00:07:01;;;;;;;8.20;6.13;;;;;;;29.32;48.83;101472.75;4984389;28;20426;-39
2023/09/11 00:09:28;;;;;;;9.45;6.00;;;;;;;29.31;48.34;101471.09;4982194;28;20065;-40
2023/09/11 00:11:54;;;;;;;8.00;5.60;;;;;;;29.30;48.20;101474.84;4982892;28;20497;-40
2023/09/11 00:14:21;;;;;;;8.23;5.72;;;;;;;29.29;48.39;101470.44;4984033;28;20046;-39
2023/09/11 00:16:48;;;;;;;6.97;5.75;;;;;;;29.27;48.12;101464.38;4980780;28;20080;-40
2023/09/11 00:19:14;;;;;;;8.55;6.13;;;;;;;29.25;48.57;101467.31;4984849;28;20457;-40
2023/09/11 00:21:41;;;;;;;7.13;6.00;;;;;;;29.25;48.25;101469.19;4986130;28;20086;-39
2023/09/11 00:24:07;;;;;;;7.88;6.30;;;;;;;29.23;48.68;101469.41;4985124;28;20047;-39
2023/09/11 00:26:34;;;;;;;8.10;5.55;;;;;;;29.22;48.64;101466.88;4989150;28;20049;-39
2023/09/11 00:29:01;;;;;;;7.15;5.45;;;;;;;29.22;48.24;101469.63;4988646;28;20062;-39
2023/09/11 00:31:27;;;;;;;7.35;5.40;;;;;;;29.20;48.64;101461.66;4986164;28;20516;-40
2023/09/11 00:33:54;;;;;;;8.63;5.88;;;;;;;29.18;48.72;101469.19;4986791;28;20701;-40
2023/09/11 00:36:21;;;;;;;7.57;5.60;;;;;;;29.17;48.33;101459.34;4988367;28;20482;-40
2023/09/11 00:38:50;;;;;;;9.05;5.60;;;;;;;29.16;48.21;101454.94;4987675;28;20054;-40
2023/09/11 00:41:17;;;;;;;8.88;6.45;;;;;;;29.15;48.43;101466.91;4987782;28;20047;-40
2023/09/11 00:43:43;;;;;;;8.15;5.82;;;;;;;29.13;48.78;101457.25;4988409;28;20054;-40
2023/09/11 00:46:10;;;;;;;6.45;5.55;;;;;;;29.12;48.49;101447.38;4985043;28;20149;-39
2023/09/11 00:48:37;;;;;;;10.30;5.97;;;;;;;29.12;48.52;101450.13;4988174;28;20067;-39
2023/09/11 00:51:05;;;;;;;7.25;5.78;;;;;;;29.11;49.06;101456.66;4989881;28;20050;-39
2023/09/11 00:53:32;;;;;;;5.97;5.38;;;;;;;29.09;48.43;101447.81;4987761;28;20051;-39
2023/09/11 00:55:58;;;;;;;7.85;5.82;;;;;;;29.09;48.79;101442.34;4988341;28;20058;-39
2023/09/11 00:58:25;;;;;;;7.22;5.45;;;;;;;29.07;49.30;101439.84;4985648;28;20055;-39
2023/09/11 01:00:53;;;;;;;8.05;5.20;;;;;;;29.07;48.49;101441.72;4989086;28;20486;-39
2023/09/11 01:03:20;;;;;;;6.07;5.15;;;;;;;29.05;49.13;101438.38;4982452;28;20064;-40
2023/09/11 01:05:49;;;;;;;6.85;5.35;;;;;;;29.04;48.55;101434.81;4982427;28;20057;-39
2023/09/11 01:08:16;;;;;;;8.50;5.22;;;;;;;29.02;48.31;101435.00;4984169;28;20077;-39
2023/09/11 01:10:43;;;;;;;6.63;5.32;;;;;;;29.02;48.68;101434.16;4983441;28;20349;-39
2023/09/11 01:13:09;;;;;;;7.60;5.28;;;;;;;29.02;48.93;101436.91;4983398;28;20054;-39
2023/09/11 01:15:45;;;;;;;7.78;5.80;;;;;;;28.99;48.41;101432.72;4985116;28;20484;-39
2023/09/11 01:18:29;;;;;;;5.93;4.85;;;;;;;28.98;49.05;101432.91;4984168;28;20395;-39
2023/09/11 01:21:20;;;;;;;6.97;5.50;;;;;;;28.96;48.92;101435.00;4979466;28;20053;-39
2023/09/11 01:24:05;;;;;;;6.68;5.40;;;;;;;28.95;48.60;101431.44;4983041;28;20530;-39
2023/09/11 01:26:43;;;;;;;6.78;5.15;;;;;;;28.95;49.26;101425.13;4983951;28;20137;-39
2023/09/11 01:29:25;;;;;;;7.63;5.75;;;;;;;28.93;48.43;101430.78;4987557;28;20055;-39
2023/09/11 01:31:53;;;;;;;5.35;4.80;;;;;;;28.93;48.88;101424.50;4988473;28;20081;-39
2023/09/11 01:34:20;;;;;;;8.93;5.38;;;;;;;28.91;48.65;101430.19;4986522;28;20133;-39
2023/09/11 01:36:47;;;;;;;6.65;5.78;;;;;;;28.89;48.61;101424.09;4983855;28;20134;-39
2023/09/11 01:39:13;;;;;;;7.93;5.35;;;;;;;28.88;48.84;101416.94;4984136;28;20617;-39
2023/09/11 01:41:44;;;;;;;5.97;5.30;;;;;;;28.86;49.14;101421.75;4981244;28;20169;-39
2023/09/11 01:44:44;;;;;;;7.55;5.28;;;;;;;28.83;49.00;101416.75;4980507;28;20054;-39
2023/09/11 01:47:14;;;;;;;8.93;5.65;;;;;;;28.85;49.32;101417.38;4987479;28;20054;-39
2023/09/11 01:49:42;;;;;;;6.88;5.53;;;;;;;28.83;48.75;101411.31;4984144;28;20141;-39
2023/09/11 01:52:10;;;;;;;5.72;5.10;;;;;;;28.83;49.05;101419.50;4984627;28;20051;-39
2023/09/11 01:54:37;;;;;;;8.10;5.78;;;;;;;28.82;49.58;101414.22;4980813;28;20058;-39
2023/09/11 01:57:05;;;;;;;7.20;5.35;;;;;;;28.81;49.69;101410.66;4983013;28;21391;-39
2023/09/11 01:59:32;;;;;;;7.35;5.60;;;;;;;28.79;49.53;101412.78;4981372;28;20050;-39
2023/09/11 02:01:58;;;;;;;6.75;5.30;;;;;;;28.77;49.23;101410.25;4984496;28;20083;-39
2023/09/11 02:04:25;;;;;;;6.60;5.25;;;;;;;28.77;49.34;101407.50;4983038;28;20132;-39
2023/09/11 02:06:51;;;;;;;8.43;5.45;;;;;;;28.75;49.51;101404.16;4987344;28;20379;-39
2023/09/11 02:09:18;;;;;;;7.22;5.03;;;;;;;28.74;49.64;101399.78;4983970;28;20133;-39
2023/09/11 02:11:45;;;;;;;6.97;5.05;;;;;;;28.73;49.00;101402.69;4983541;28;20105;-39
2023/09/11 02:14:11;;;;;;;6.80;4.88;;;;;;;28.71;49.65;101397.47;5017607;28;20099;-39
2023/09/11 02:16:38;;;;;;;6.32;4.90;;;;;;;28.72;49.68;101395.56;4982961;28;20131;-39
2023/09/11 02:19:05;;;;;;;5.93;4.78;;;;;;;28.70;49.73;101393.03;4983075;28;20081;-39
2023/09/11 02:21:31;;;;;;;7.22;6.00;;;;;;;28.70;49.51;101392.19;4983223;28;20058;-39
2023/09/11 02:23:58;;;;;;;6.07;5.10;;;;;;;28.68;49.49;101386.97;4981585;28;20512;-39
2023/09/11 02:26:25;;;;;;;6.70;4.97;;;;;;;28.68;49.48;101386.13;4979980;28;20145;-39
2023/09/11 02:28:52;;;;;;;6.57;5.60;;;;;;;28.67;49.53;101384.47;4982525;28;20061;-39
2023/09/11 02:31:18;;;;;;;5.57;4.97;;;;;;;28.66;49.75;101388.22;4983204;28;20093;-39
2023/09/11 02:33:45;;;;;;;6.25;4.85;;;;;;;28.64;49.11;101382.16;4984774;28;20168;-39
2023/09/11 02:36:12;;;;;;;6.03;4.97;;;;;;;28.64;49.72;101384.88;4985902;28;20394;-39
2023/09/11 02:38:38;;;;;;;7.03;4.80;;;;;;;28.62;49.96;101381.50;4983198;28;20142;-39
2023/09/11 02:41:05;;;;;;;6.10;4.72;;;;;;;28.61;49.48;101380.66;4986424;28;20744;-39
2023/09/11 02:43:35;;;;;;;7.32;5.35;;;;;;;28.61;49.20;101377.94;4980291;28;20119;-38
2023/09/11 02:46:02;;;;;;;8.07;4.88;;;;;;;28.59;49.20;101371.88;4984846;28;20070;-38
2023/09/11 02:48:29;;;;;;;5.80;4.45;;;;;;;28.60;48.89;101368.09;4986809;28;20429;-39
2023/09/11 02:50:56;;;;;;;6.00;4.97;;;;;;;28.58;49.87;101367.44;4986992;28;20350;-39
2023/09/11 02:53:22;;;;;;;5.85;5.03;;;;;;;28.58;49.42;101366.63;4987595;28;20518;-38
2023/09/11 02:55:49;;;;;;;6.65;5.13;;;;;;;28.57;49.46;101373.97;4985525;28;20046;-39
2023/09/11 02:58:15;;;;;;;5.43;4.88;;;;;;;28.57;49.18;101370.41;4984002;28;20088;-38
2023/09/11 03:00:42;;;;;;;7.43;5.22;;;;;;;28.55;49.05;101361.59;4986535;28;20046;-39
2023/09/11 03:03:09;;;;;;;6.43;5.10;;;;;;;28.55;49.31;101359.72;4988925;28;20137;-39
2023/09/11 03:05:36;;;;;;;6.95;4.50;;;;;;;28.54;49.71;101368.91;4981706;28;20450;-39
2023/09/11 03:08:03;;;;;;;6.20;5.30;;;;;;;28.53;49.94;101361.78;4982110;28;20046;-39
2023/09/11 03:10:31;;;;;;;6.03;5.05;;;;;;;28.53;49.56;101364.53;4981878;28;20062;-39
2023/09/11 03:12:58;;;;;;;5.68;4.95;;;;;;;28.51;49.75;101362.03;4984813;28;20141;-39
2023/09/11 03:15:28;;;;;;;5.80;5.03;;;;;;;28.52;49.70;101360.13;4979868;28;20054;-38
2023/09/11 03:17:55;;;;;;;6.47;5.05;;;;;;;28.50;49.32;101357.63;4981902;28;20560;-39
2023/09/11 03:20:22;;;;;;;5.90;4.80;;;;;;;28.51;49.98;101350.28;4981621;28;20062;-38
2023/09/11 03:22:48;;;;;;;6.00;5.15;;;;;;;28.49;49.24;101345.00;4981711;28;20054;-38
2023/09/11 03:25:15;;;;;;;7.35;5.22;;;;;;;28.48;49.35;101354.25;4980572;28;20256;-39
2023/09/11 03:27:43;;;;;;;5.90;4.72;;;;;;;28.50;49.20;101351.31;4985533;28;20430;-38
2023/09/11 03:30:10;;;;;;;6.63;4.95;;;;;;;28.49;49.23;101344.19;4982466;28;20061;-39
2023/09/11 03:32:36;;;;;;;5.07;4.57;;;;;;;28.49;49.10;101341.44;4981072;28;20434;-38
2023/09/11 03:35:03;;;;;;;5.95;4.68;;;;;;;28.47;49.84;101347.13;4982984;28;20058;-38
2023/09/11 03:37:30;;;;;;;5.70;4.75;;;;;;;28.47;49.75;101327.19;4982335;28;20118;-38
2023/09/11 03:39:58;;;;;;;7.53;4.90;;;;;;;28.46;49.38;101334.56;4984457;28;20120;-39
2023/09/11 03:42:25;;;;;;;6.07;4.90;;;;;;;28.46;49.39;101323.66;4983732;28;20485;-39
2023/09/11 03:44:52;;;;;;;5.68;5.07;;;;;;;28.46;49.92;101322.78;4982957;28;20200;-39
2023/09/11 03:47:18;;;;;;;5.85;4.68;;;;;;;28.45;49.65;101321.09;4986648;28;20074;-39
2023/09/11 03:49:45;;;;;;;6.35;4.50;;;;;;;28.45;50.00;101321.09;4989316;28;20074;-39
2023/09/11 03:52:12;;;;;;;6.18;5.07;;;;;;;28.43;49.20;101315.88;4988966;28;20046;-38
2023/09/11 03:54:39;;;;;;;6.07;4.38;;;;;;;28.42;49.40;101314.22;4981233;28;20061;-39
2023/09/11 03:57:05;;;;;;;5.45;4.40;;;;;;;28.43;49.59;101309.59;4983117;28;20176;-38
2023/09/11 03:59:32;;;;;;;5.22;4.72;;;;;;;28.42;49.10;101314.22;4984030;28;20479;-39
2023/09/11 04:01:59;;;;;;;6.18;4.60;;;;;;;28.42;49.83;101311.47;4983870;28;20736;-38
2023/09/11 04:04:25;;;;;;;7.22;4.32;;;;;;;28.41;49.59;101309.78;4986512;28;20129;-39
2023/09/11 04:06:52;;;;;;;5.05;4.55;;;;;;;28.41;49.33;101306.22;4985495;28;20038;-38
2023/09/11 04:09:19;;;;;;;5.30;4.80;;;;;;;28.41;49.35;101304.31;4987375;28;20050;-38
2023/09/11 04:11:45;;;;;;;5.85;4.57;;;;;;;28.40;49.74;101312.72;4984441;28;20620;-38
2023/09/11 04:14:12;;;;;;;5.60;4.68;;;;;;;28.38;49.76;101302.00;4986398;28;20042;-39
2023/09/11 04:16:38;;;;;;;5.70;4.78;;;;;;;28.38;49.77;101304.75;4985946;28;20157;-39
2023/09/11 04:19:05;;;;;;;6.47;5.05;;;;;;;28.37;49.89;101300.34;4986427;28;20050;-38
2023/09/11 04:21:34;;;;;;;6.22;4.80;;;;;;;28.36;49.87;101293.22;4983112;28;20046;-39
2023/09/11 04:24:01;;;;;;;5.68;4.47;;;;;;;28.35;49.09;101302.44;4977788;28;20146;-38
2023/09/11 04:26:29;;;;;;;5.68;4.72;;;;;;;28.34;49.40;101303.47;4985115;28;20133;-38
2023/09/11 04:28:56;;;;;;;7.93;4.93;;;;;;;28.34;49.87;101297.16;4986048;28;20141;-38
2023/09/11 04:31:23;;;;;;;5.72;4.78;;;;;;;28.33;49.69;101299.06;4986113;28;20693;-39
2023/09/11 04:33:50;;;;;;;5.95;5.05;;;;;;;28.32;49.46;101286.50;4984276;28;20058;-39
2023/09/11 04:36:17;;;;;;;7.88;5.13;;;;;;;28.32;50.13;101305.56;4982400;28;20465;-38
2023/09/11 04:38:43;;;;;;;8.70;5.95;;;;;;;28.31;49.81;101284.81;4986988;28;20144;-38
2023/09/11 04:41:10;;;;;;;8.70;5.90;;;;;;;28.31;50.17;101293.00;4992292;28;20113;-38
2023/09/11 04:43:37;;;;;;;7.85;6.10;;;;;;;28.30;50.03;101274.94;4985988;28;20054;-38
2023/09/11 04:46:03;;;;;;;8.90;6.55;;;;;;;28.29;49.30;101278.72;4983354;28;20051;-38
2023/09/11 04:48:30;;;;;;;9.23;6.07;;;;;;;28.29;50.01;101281.44;4980103;28;20073;-38
2023/09/11 04:50:57;;;;;;;8.40;6.43;;;;;;;28.28;49.55;101285.22;4984214;28;20051;-38
2023/09/11 04:53:23;;;;;;;7.60;6.22;;;;;;;28.27;49.78;101292.59;4986699;28;20109;-38
2023/09/11 04:55:50;;;;;;;8.02;6.55;;;;;;;28.26;50.35;101290.91;5013770;28;20137;-38
2023/09/11 04:58:17;;;;;;;8.13;6.30;;;;;;;28.25;49.72;101299.28;4982897;28;20062;-38
2023/09/11 05:00:44;;;;;;;7.45;6.03;;;;;;;28.25;49.64;101293.81;4981295;28;20042;-38
2023/09/11 05:03:10;;;;;;;8.77;6.30;;;;;;;28.24;50.22;101298.44;4982994;28;20116;-39
2023/09/11 05:05:40;;;;;;;8.85;6.40;;;;;;;28.24;49.55;101303.91;4983039;28;20046;-38
2023/09/11 05:08:08;;;;;;;8.05;6.15;;;;;;;28.24;49.53;101303.06;4983072;28;20078;-38
2023/09/11 05:10:40;;;;;;;9.43;7.18;;;;;;;28.24;49.69;101309.34;4984738;28;20050;-38
2023/09/11 05:13:07;;;;;;;10.05;7.20;;;;;;;28.22;49.79;101300.56;4991674;28;20138;-38
2023/09/11 05:15:33;;;;;;;9.45;6.68;;;;;;;28.22;49.54;101305.16;4981874;28;20082;-38
2023/09/11 05:18:00;;;;;;;8.20;6.72;;;;;;;28.21;49.30;101301.59;4985625;28;20079;-38
2023/09/11 05:20:27;;;;;;;10.50;6.78;;;;;;;28.20;49.67;101291.75;4983291;28;20046;-38
2023/09/11 05:22:54;;;;;;;8.50;6.82;;;;;;;28.21;49.92;101303.47;4986191;28;20050;-38
2023/09/11 05:25:20;;;;;;;8.45;6.57;;;;;;;28.20;49.25;101299.91;4987538;28;20347;-39
2023/09/11 05:27:47;;;;;;;9.05;7.13;;;;;;;28.20;49.62;101307.25;4983361;28;20046;-38
2023/09/11 05:30:14;;;;;;;10.52;6.75;;;;;;;28.20;49.70;101307.25;4984510;28;20086;-38
2023/09/11 05:32:40;;;;;;;10.95;7.10;;;;;;;28.20;49.35;101301.81;4984459;28;20144;-38
2023/09/11 05:35:08;;;;;;;9.85;7.40;;;;;;;28.19;49.40;101306.44;5016445;28;20097;-38
2023/09/11 05:37:35;;;;;;;9.93;6.80;;;;;;;28.21;49.61;101306.19;4974511;28;20387;-38
2023/09/11 05:40:02;;;;;;;9.30;7.22;;;;;;;28.19;49.98;101306.44;4982942;28;20157;-38
2023/09/11 05:42:29;;;;;;;8.98;6.88;;;;;;;28.20;49.76;101312.72;4982012;28;20524;-38
2023/09/11 05:44:56;;;;;;;9.98;7.70;;;;;;;28.18;49.94;101303.88;4981447;28;20327;-38
2023/09/11 05:47:22;;;;;;;11.77;7.72;;;;;;;28.17;50.07;101310.41;4980467;28;20125;-38
2023/09/11 05:49:49;;;;;;;11.68;7.57;;;;;;;28.14;50.34;101311.69;5011829;28;20136;-38
2023/09/11 05:52:16;;;;;;;11.40;7.85;;;;;;;28.12;49.87;101318.38;4983008;28;20129;-38
2023/09/11 05:54:42;;;;;;;9.25;7.18;;;;;;;28.11;50.42;101320.25;5008739;28;20138;-38
2023/09/11 05:57:09;;;;;;;9.63;7.88;;;;;;;28.11;49.79;101322.16;4982771;28;20051;-38
2023/09/11 05:59:35;;;;;;;9.98;7.32;;;;;;;28.08;50.53;101320.69;4982379;28;20465;-38
2023/09/11 06:02:02;;;;;;;9.85;7.75;;;;;;;28.10;49.70;101334.09;4985416;28;20054;-38
2023/09/11 06:04:30;;;;;;;8.70;7.25;;;;;;;28.10;49.83;101339.53;4982698;28;20042;-39
2023/09/11 06:06:57;;;;;;;9.25;7.20;;;;;;;28.10;49.44;101334.94;4977350;28;20494;-38
2023/09/11 06:09:24;;;;;;;10.20;7.53;;;;;;;28.11;49.76;101343.97;4980559;28;20058;-39
2023/09/11 06:11:52;;;;;;;10.55;7.90;;;;;;;28.10;50.08;101334.09;4975420;28;20047;-38
2023/09/11 06:14:19;;;;;;;9.68;7.10;;;;;;;28.13;49.68;101347.31;4982120;28;20443;-38
2023/09/11 06:16:45;;;;;;;8.35;7.18;;;;;;;28.14;49.84;101348.97;4984005;28;20046;-38
2023/09/11 06:19:12;;;;;;;10.43;7.32;;;;;;;28.15;49.96;101350.66;4980259;28;20323;-38
2023/09/11 06:21:39;;;;;;;10.48;7.78;;;;;;;28.14;50.04;101351.69;4977272;28;20059;-38
2023/09/11 06:24:06;;;;;;;10.90;7.22;;;;;;;28.17;49.58;101356.75;4979502;28;20717;-38
2023/09/11 06:26:32;;;;;;;9.48;7.00;;;;;;;28.17;49.74;101362.19;4980641;28;20138;-38
2023/09/11 06:28:59;;;;;;;11.60;7.50;;;;;;;28.17;50.16;101359.47;4985498;28;20047;-38
2023/09/11 06:31:25;;;;;;;9.00;7.03;;;;;;;28.19;50.20;101362.84;4982555;28;20059;-38
2023/09/11 06:33:52;;;;;;;11.77;7.10;;;;;;;28.20;49.18;101361.78;4980813;28;20422;-38
2023/09/11 06:36:19;;;;;;;8.88;7.03;;;;;;;28.20;49.43;101367.22;4985300;28;20382;-38
2023/09/11 06:38:45;;;;;;;10.85;7.35;;;;;;;28.21;49.67;101363.44;4983397;28;20053;-38
2023/09/11 06:41:12;;;;;;;8.68;6.25;;;;;;;28.21;49.77;101368.91;4985482;28;20430;-38
2023/09/11 06:43:39;;;;;;;10.23;7.45;;;;;;;28.21;49.49;101363.44;4976135;28;20050;-39
2023/09/11 06:46:05;;;;;;;8.50;6.78;;;;;;;28.20;49.39;101357.16;4986403;28;20128;-38
2023/09/11 06:48:32;;;;;;;9.50;6.75;;;;;;;28.21;49.19;101353.38;4983811;28;20053;-38
2023/09/11 06:50:59;;;;;;;8.80;6.90;;;;;;;28.22;49.38;101354.22;4992461;28;20073;-38
2023/09/11 06:53:25;;;;;;;9.82;6.85;;;;;;;28.21;49.28;101352.53;4985424;28;20061;-38
2023/09/11 06:55:53;;;;;;;9.85;5.82;;;;;;;28.21;49.28;101356.09;4984236;28;20058;-38
2023/09/11 06:58:20;;;;;;;11.00;6.45;;;;;;;28.22;49.50;101351.50;4980670;28;20056;-38
2023/09/11 07:00:47;;;;;;;9.38;6.88;;;;;;;28.22;49.64;101354.22;4987705;28;20058;-38
2023/09/11 07:03:14;;;;;;;8.52;6.60;;;;;;;28.22;49.00;101352.34;5011777;28;20069;-38
2023/09/11 07:05:41;;;;;;;10.15;7.03;;;;;;;28.22;49.31;101354.22;4979312;28;20584;-38
2023/09/11 07:08:07;;;;;;;8.52;6.47;;;;;;;28.22;49.86;101351.50;4978980;28;20054;-38
2023/09/11 07:10:34;;;;;;;8.13;6.32;;;;;;;28.22;49.57;101340.59;4979247;28;20105;-39
2023/09/11 07:13:07;;;;;;;9.73;6.53;;;;;;;28.21;49.57;101339.75;4984072;28;20054;-38
2023/09/11 07:15:33;;;;;;;8.57;6.57;;;;;;;28.22;49.08;101355.09;4979183;28;20047;-39
2023/09/11 07:18:00;;;;;;;9.30;5.88;;;;;;;28.22;49.29;101343.31;4981354;28;20038;-38
2023/09/11 07:20:27;;;;;;;8.65;6.40;;;;;;;28.21;48.98;101347.09;4983022;28;20117;-39
2023/09/11 07:22:54;;;;;;;9.20;6.57;;;;;;;28.21;48.93;101342.47;4986388;28;20058;-38
2023/09/11 07:25:22;;;;;;;9.60;7.28;;;;;;;28.21;49.83;101347.94;4986839;28;20401;-38
2023/09/11 07:27:54;;;;;;;11.55;6.53;;;;;;;28.21;49.78;101349.81;4978406;28;20125;-39
2023/09/11 07:30:20;;;;;;;10.43;7.22;;;;;;;28.22;49.45;101359.66;4983005;28;20101;-38
2023/09/11 07:32:47;;;;;;;11.43;6.45;;;;;;;28.22;48.93;101360.53;4983167;28;20062;-38
2023/09/11 07:35:14;;;;;;;10.82;6.60;;;;;;;28.22;49.96;101359.66;4983257;28;20082;-38
2023/09/11 07:37:40;;;;;;;9.32;6.72;;;;;;;28.22;48.96;101354.22;4984573;28;20069;-39
2023/09/11 07:40:08;;;;;;;9.32;6.95;;;;;;;28.22;49.08;101356.94;4982058;28;20253;-39
2023/09/11 07:42:36;;;;;;;12.68;6.80;;;;;;;28.22;49.67;101368.72;4977371;28;20418;-39
2023/09/11 07:45:03;;;;;;;10.70;7.18;;;;;;;28.23;49.86;101366.81;4977854;28;20308;-39
2023/09/11 07:47:29;;;;;;;12.10;7.20;;;;;;;28.23;49.75;101370.38;4977155;28;20050;-39
2023/09/11 07:49:56;;;;;;;10.25;6.50;;;;;;;28.25;49.60;101370.16;4977195;28;20078;-39
2023/09/11 07:52:23;;;;;;;9.88;7.25;;;;;;;28.25;49.81;101375.63;4980536;28;20077;-39
2023/09/11 07:54:50;;;;;;;13.50;7.28;;;;;;;28.24;49.15;101373.94;4983241;28;20067;-39
2023/09/11 07:57:17;;;;;;;11.75;6.88;;;;;;;28.25;49.54;101376.44;4977908;28;20046;-39
2023/09/11 07:59:44;;;;;;;10.77;6.93;;;;;;;28.25;49.80;101376.44;4976273;28;20440;-39
2023/09/11 08:02:11;;;;;;;10.25;6.82;;;;;;;28.26;49.25;101377.28;4976930;28;20093;-39
2023/09/11 08:04:38;;;;;;;9.90;6.95;;;;;;;28.26;49.24;101377.28;4980209;28;20077;-39
2023/09/11 08:07:04;;;;;;;11.27;6.88;;;;;;;28.26;49.41;101389.06;4975447;28;20102;-39
2023/09/11 08:09:31;;;;;;;10.55;7.43;;;;;;;28.29;48.95;101379.59;4975251;28;20053;-39
2023/09/11 08:12:00;;;;;;;10.38;7.15;;;;;;;28.30;49.09;101375.81;4976776;28;20133;-39
2023/09/11 08:14:26;;;;;;;12.40;7.60;;;;;;;28.33;49.05;101385.47;4974270;28;20445;-39
2023/09/11 08:16:53;;;;;;;10.45;7.00;;;;;;;28.35;49.70;101386.94;4978550;28;20129;-39
2023/09/11 08:19:20;;;;;;;9.80;6.82;;;;;;;28.35;49.72;101376.06;4982774;28;20046;-39
2023/09/11 08:21:47;;;;;;;10.90;6.70;;;;;;;28.36;48.84;101379.59;4981313;28;20116;-39
2023/09/11 08:24:13;;;;;;;12.10;6.88;;;;;;;28.36;49.77;101388.66;4984593;28;20402;-39
2023/09/11 08:26:40;;;;;;;14.10;6.68;;;;;;;28.37;48.95;101376.69;4982298;28;20736;-39
2023/09/11 08:29:07;;;;;;;11.50;6.97;;;;;;;28.38;49.31;101386.53;4980640;28;20916;-39
2023/09/11 08:31:33;;;;;;;12.48;7.25;;;;;;;28.39;48.77;101390.13;4981463;28;20042;-39
2023/09/11 08:34:00;;;;;;;8.40;5.88;;;;;;;28.39;49.38;101387.41;4979364;28;20046;-39
2023/09/11 08:36:27;;;;;;;10.45;7.07;;;;;;;28.40;48.84;101394.53;4983473;28;20050;-39
2023/09/11 08:38:54;;;;;;;11.73;6.50;;;;;;;28.39;49.38;101401.88;4983962;28;20136;-39
2023/09/11 08:41:23;;;;;;;11.43;6.57;;;;;;;28.38;49.55;101394.72;4987669;28;20057;-39
2023/09/11 08:43:50;;;;;;;11.68;7.55;;;;;;;28.40;48.81;101394.53;4986147;28;20150;-39
2023/09/11 08:46:18;;;;;;;12.85;6.60;;;;;;;28.39;49.37;101401.88;4985923;28;20073;-39
2023/09/11 08:48:48;;;;;;;11.95;8.35;;;;;;;28.39;49.20;101401.03;4985746;28;20050;-39
2023/09/11 08:51:23;;;;;;;10.75;7.72;;;;;;;28.39;49.72;101401.88;4986360;28;20557;-39
2023/09/11 08:53:52;;;;;;;12.32;7.47;;;;;;;28.41;49.57;101401.66;4986111;28;20050;-39
2023/09/11 08:56:18;;;;;;;15.10;6.95;;;;;;;28.41;48.75;101401.66;4984399;28;20063;-39
2023/09/11 08:58:48;;;;;;;18.33;10.60;;;;;;;28.39;49.10;101399.16;4965868;28;20141;-39
2023/09/11 09:01:16;;;;;;;20.60;11.20;;;;;;;28.34;50.20;101398.06;4978321;28;20050;-39
2023/09/11 09:03:44;;;;;;;18.30;9.98;;;;;;;28.29;49.93;101395.97;4976617;28;20327;-39
2023/09/11 09:06:12;;;;;;;18.00;10.40;;;;;;;28.24;49.96;101396.59;4978626;28;20184;-40
2023/09/11 09:08:39;;;;;;;18.02;9.25;;;;;;;28.21;50.33;101401.63;4977388;28;20088;-39
2023/09/11 09:11:06;;;;;;;15.27;9.80;;;;;;;28.18;50.63;101402.88;4977956;28;20371;-40
2023/09/11 09:13:37;;;;;;;19.10;9.60;;;;;;;28.18;50.73;101408.34;5006100;28;20116;-41
2023/09/11 09:16:04;;;;;;;16.63;8.93;;;;;;;28.19;50.25;101401.84;4980037;28;20046;-40
2023/09/11 09:18:30;;;;;;;16.90;9.13;;;;;;;28.22;50.68;101403.28;4981822;28;20282;-39
2023/09/11 09:20:57;;;;;;;14.82;7.85;;;;;;;28.23;50.16;101408.53;4981352;28;20054;-43
2023/09/11 09:23:36;;;;;;;15.98;8.82;;;;;;;28.25;50.72;101409.16;4976577;28;20085;-41
2023/09/11 09:26:07;;;;;;;16.45;9.82;;;;;;;28.25;50.92;101409.16;5009507;28;20046;-41
2023/09/11 09:28:34;;;;;;;17.23;9.52;;;;;;;28.25;50.85;101408.31;4978050;28;20128;-40
2023/09/11 09:31:03;;;;;;;18.70;8.82;;;;;;;28.26;50.04;101405.41;4975352;28;20185;-40
2023/09/11 09:33:30;;;;;;;15.75;9.50;;;;;;;28.29;50.77;101404.97;4978374;28;20101;-40
2023/09/11 09:35:58;;;;;;;15.02;7.20;;;;;;;28.34;50.85;101404.34;4978256;28;20086;-40
2023/09/11 09:38:25;;;;;;;12.48;7.43;;;;;;;28.41;49.99;101401.66;4975294;28;20050;-39
2023/09/11 09:40:54;;;;;;;14.00;7.63;;;;;;;28.51;50.26;101396.63;4978653;28;20054;-40
2023/09/11 09:43:22;;;;;;;12.65;8.15;;;;;;;28.58;49.51;101399.34;4972988;28;20361;-40
2023/09/11 09:45:48;;;;;;;15.82;9.75;;;;;;;28.66;49.55;101399.13;4978771;28;20050;-40
2023/09/11 09:48:16;;;;;;;18.67;10.80;;;;;;;28.73;49.28;101391.78;4977754;28;20097;-40
2023/09/11 09:50:51;;;;;;;21.88;14.25;;;;;;;28.81;49.43;101402.47;4974936;28;20058;-40
2023/09/11 09:53:26;;;;;;;24.27;12.50;;;;;;;28.88;49.34;101400.59;4977105;28;20129;-40
2023/09/11 09:55:54;;;;;;;17.58;10.35;;;;;;;28.93;49.22;101394.47;4976544;28;20382;-40
2023/09/11 09:58:27;;;;;;;16.08;9.40;;;;;;;29.01;49.02;101399.75;4978521;28;20050;-40
2023/09/11 10:01:05;;;;;;;18.63;9.40;;;;;;;29.08;48.75;101402.47;4976195;28;20061;-40
2023/09/11 10:03:45;;;;;;;11.85;7.75;;;;;;;29.10;48.43;101398.44;4975952;28;20061;-40
2023/09/11 10:06:20;;;;;;;17.95;8.27;;;;;;;29.15;49.01;101403.28;4979457;28;20406;-40
2023/09/11 10:09:02;;;;;;;17.35;8.05;;;;;;;29.24;48.64;101402.00;4981093;28;20105;-40
2023/09/11 10:11:31;;;;;;;12.90;7.00;;;;;;;29.31;48.72;101401.94;4975305;28;20339;-40
2023/09/11 10:14:02;;;;;;;11.52;6.55;;;;;;;29.36;48.26;101405.72;4974338;28;20964;-40
2023/09/11 10:16:33;;;;;;;13.40;6.20;;;;;;;29.40;48.34;101412.44;4972758;28;20049;-41
2023/09/11 10:19:01;;;;;;;12.70;6.43;;;;;;;29.45;47.97;101398.97;4971925;28;20383;-41
2023/09/11 10:21:29;;;;;;;9.48;5.32;;;;;;;29.52;47.55;101399.78;4972356;28;20054;-41
2023/09/11 10:23:56;;;;;;;10.82;6.15;;;;;;;29.58;47.46;101400.00;4972829;28;20065;-41
2023/09/11 10:26:27;;;;;;;12.93;6.07;;;;;;;29.60;46.92;101403.34;4974740;28;20458;-41
2023/09/11 10:28:58;;;;;;;13.38;6.45;;;;;;;29.64;47.09;101390.94;4969256;28;20058;-41
2023/09/11 10:31:28;;;;;;;11.82;7.30;;;;;;;29.66;46.86;101384.19;4978798;28;20054;-41
2023/09/11 10:33:57;;;;;;;18.25;8.82;;;;;;;29.69;47.08;101391.13;4980511;28;20533;-41
2023/09/11 10:36:29;;;;;;;17.05;7.03;;;;;;;29.71;46.45;101392.59;4975254;28;20066;-40
2023/09/11 10:38:59;;;;;;;12.07;5.97;;;;;;;29.74;46.62;101392.13;4975209;28;20192;-38
2023/09/11 10:41:26;;;;;;;7.75;4.53;;;;;;;29.78;46.29;101394.44;4978551;28;20055;-42
2023/09/11 10:43:53;;;;;;;11.73;5.07;;;;;;;29.81;46.50;101388.53;4973079;28;20053;-41
2023/09/11 10:46:20;;;;;;;11.45;5.15;;;;;;;29.80;45.58;101389.59;4974288;28;20089;-41
2023/09/11 10:48:47;;;;;;;8.60;4.35;;;;;;;29.79;45.87;101385.16;4977312;28;20046;-40
2023/09/11 10:51:15;;;;;;;10.00;4.75;;;;;;;29.78;45.00;101386.22;4977755;28;20169;-40
2023/09/11 10:53:42;;;;;;;12.15;4.72;;;;;;;29.77;45.24;101387.28;4980848;28;20054;-43
2023/09/11 10:56:10;;;;;;;6.15;4.10;;;;;;;29.76;45.01;101383.72;4975102;28;20359;-42
2023/09/11 10:58:38;;;;;;;8.85;4.43;;;;;;;29.75;44.75;101379.31;4975167;28;20046;-41
2023/09/11 11:01:05;;;;;;;10.45;4.80;;;;;;;29.74;44.61;101386.66;4972836;28;20129;-40
2023/09/11 11:03:33;;;;;;;11.50;4.15;;;;;;;29.74;45.22;101386.66;4977861;28;20059;-44
2023/09/11 11:06:01;;;;;;;8.57;4.30;;;;;;;29.71;44.76;101384.38;4974682;28;20061;-40
2023/09/11 11:08:33;;;;;;;9.40;4.22;;;;;;;29.68;44.71;101378.50;4969242;28;20105;-40
2023/09/11 11:11:01;;;;;;;6.47;3.72;;;;;;;29.64;44.27;101390.94;4971268;28;20586;-40
2023/09/11 11:13:28;;;;;;;11.05;4.55;;;;;;;29.60;44.37;101385.06;4975180;28;20129;-40
2023/09/11 11:16:19;;;;;;;10.43;4.15;;;;;;;29.54;44.33;101385.06;4975061;28;20343;-40
2023/09/11 11:18:46;;;;;;;9.15;3.75;;;;;;;29.55;44.53;101386.72;4969070;28;20046;-40
2023/09/11 11:21:14;;;;;;;8.27;3.58;;;;;;;29.53;44.74;101384.22;4973222;28;20073;-40
2023/09/11 11:23:55;;;;;;;9.25;3.85;;;;;;;29.54;44.42;101390.53;4973502;28;21197;-41
2023/09/11 11:26:26;;;;;;;8.13;4.43;;;;;;;29.56;45.14;101394.72;4971675;28;20138;-41